createdAt,value
2023-02-13T00:00:58.595Z,5.60
2023-02-13T00:03:30.721Z,5.50
2023-02-13T00:06:02.600Z,5.50
2023-02-13T00:08:34.555Z,5.50
2023-02-13T00:11:06.804Z,5.50
2023-02-13T00:13:38.694Z,5.50
2023-02-13T00:16:11.006Z,5.50
2023-02-13T00:18:42.974Z,5.40
2023-02-13T00:21:14.927Z,5.40
2023-02-13T00:23:46.836Z,5.40
2023-02-13T00:26:19.043Z,5.40
2023-02-13T00:28:52.179Z,5.40
2023-02-13T00:31:24.119Z,5.30
2023-02-13T00:33:56.107Z,5.30
2023-02-13T00:36:28.028Z,5.30
2023-02-13T00:38:59.888Z,5.30
2023-02-13T00:41:31.755Z,5.30
2023-02-13T00:44:03.779Z,5.30
2023-02-13T00:46:36.655Z,5.30
2023-02-13T00:49:08.698Z,5.40
2023-02-13T00:51:40.628Z,5.40
2023-02-13T00:54:12.515Z,5.40
2023-02-13T00:56:44.447Z,5.40
2023-02-13T00:59:18.411Z,5.30
2023-02-13T01:01:50.304Z,5.40
2023-02-13T01:04:22.226Z,5.40
2023-02-13T01:06:54.117Z,5.40
2023-02-13T01:09:25.987Z,5.40
2023-02-13T01:11:57.805Z,5.30
2023-02-13T01:14:29.742Z,5.30
2023-02-13T01:17:01.662Z,5.40
2023-02-13T01:19:33.555Z,5.40
2023-02-13T01:22:05.452Z,5.30
2023-02-13T01:24:37.328Z,5.40
2023-02-13T01:27:09.217Z,5.30
2023-02-13T01:29:41.103Z,5.30
2023-02-13T01:32:13.296Z,5.20
2023-02-13T01:34:45.141Z,5.10
2023-02-13T01:37:17.809Z,5.10
2023-02-13T01:39:50.819Z,5.10
2023-02-13T01:42:26.794Z,5.10
2023-02-13T01:45:18.892Z,5.10
2023-02-13T01:48:07.226Z,5.20
2023-02-13T01:50:50.759Z,5.20
2023-02-13T01:53:46.666Z,5.10
2023-02-13T01:56:24.288Z,5.10
2023-02-13T01:59:02.651Z,5.10
2023-02-13T02:01:35.358Z,5.20
2023-02-13T02:04:16.996Z,5.20
2023-02-13T02:06:57.948Z,5.20
2023-02-13T02:09:39.492Z,5.20
2023-02-13T02:12:34.119Z,5.40
2023-02-13T02:15:06.989Z,5.30
2023-02-13T02:17:38.936Z,5.30
2023-02-13T02:20:18.423Z,5.30
2023-02-13T02:23:30.389Z,5.20
2023-02-13T02:26:19.378Z,5.20
2023-02-13T02:29:11.653Z,5.30
2023-02-13T02:32:05.472Z,5.20
2023-02-13T02:34:52.624Z,5.20
2023-02-13T02:37:37.212Z,5.20
2023-02-13T02:40:27.400Z,5.20
2023-02-13T02:43:29.937Z,5.20
2023-02-13T02:46:21.972Z,5.20
2023-02-13T02:49:31.778Z,5.10
2023-02-13T02:52:15.051Z,5.10
2023-02-13T02:55:06.797Z,5.20
2023-02-13T02:58:05.728Z,5.20
2023-02-13T03:01:01.130Z,5.20
2023-02-13T03:03:52.797Z,5.10
2023-02-13T03:06:36.097Z,5.00
2023-02-13T03:09:33.189Z,5.00
2023-02-13T03:12:24.746Z,5.00
2023-02-13T03:14:56.600Z,5.00
2023-02-13T03:17:46.982Z,4.90
2023-02-13T03:20:46.481Z,4.90
2023-02-13T03:23:41.910Z,4.90
2023-02-13T03:26:45.988Z,4.80
2023-02-13T03:30:03.602Z,4.90
2023-02-13T03:33:00.175Z,4.90
2023-02-13T03:35:59.651Z,4.90
2023-02-13T03:38:42.508Z,4.80
2023-02-13T03:41:22.669Z,4.80
2023-02-13T03:44:19.824Z,4.80
2023-02-13T03:46:54.986Z,4.80
2023-02-13T03:50:06.290Z,4.70
2023-02-13T03:53:06.391Z,4.70
2023-02-13T03:56:01.345Z,4.70
2023-02-13T03:58:56.304Z,4.70
2023-02-13T04:01:32.162Z,4.60
2023-02-13T04:04:17.395Z,4.60
2023-02-13T04:06:56.468Z,4.60
2023-02-13T04:09:29.913Z,4.60
2023-02-13T04:12:19.613Z,4.60
2023-02-13T04:15:09.632Z,4.60
2023-02-13T04:17:56.712Z,4.60
2023-02-13T04:20:28.717Z,4.50
2023-02-13T04:23:08.936Z,4.50
2023-02-13T04:25:44.119Z,4.50
2023-02-13T04:28:16.293Z,4.40
2023-02-13T04:30:48.459Z,4.40
2023-02-13T04:33:20.415Z,4.50
2023-02-13T04:35:52.225Z,4.40
2023-02-13T04:38:24.100Z,4.40
2023-02-13T04:40:56.259Z,4.40
2023-02-13T04:43:28.324Z,4.50
2023-02-13T04:46:00.170Z,4.50
2023-02-13T04:48:32.140Z,4.50
2023-02-13T04:51:04.243Z,4.40
2023-02-13T04:53:36.208Z,4.40
2023-02-13T04:56:08.056Z,4.40
2023-02-13T04:58:42.001Z,4.50
2023-02-13T05:01:15.924Z,4.50
2023-02-13T05:03:48.428Z,4.50
2023-02-13T05:06:20.476Z,4.40
2023-02-13T05:08:52.324Z,4.40
2023-02-13T05:11:24.212Z,4.40
2023-02-13T05:13:56.125Z,4.40
2023-02-13T05:16:28.001Z,4.40
2023-02-13T05:18:59.829Z,4.40
2023-02-13T05:21:50.446Z,4.40
2023-02-13T05:24:22.411Z,4.40
2023-02-13T05:26:54.390Z,4.40
2023-02-13T05:29:26.921Z,4.40
2023-02-13T05:32:00.072Z,4.40
2023-02-13T05:34:32.172Z,4.40
2023-02-13T05:37:04.128Z,4.30
2023-02-13T05:39:35.935Z,4.30
2023-02-13T05:42:07.838Z,4.20
2023-02-13T05:44:39.751Z,4.20
2023-02-13T05:47:11.698Z,4.20
2023-02-13T05:49:43.580Z,4.20
2023-02-13T05:52:15.533Z,4.20
2023-02-13T05:54:47.348Z,4.20
2023-02-13T05:57:19.561Z,4.20
2023-02-13T05:59:51.421Z,4.10
2023-02-13T06:02:23.589Z,4.20
2023-02-13T06:04:55.488Z,4.10
2023-02-13T06:07:27.364Z,4.20
2023-02-13T06:09:59.690Z,4.20
2023-02-13T06:12:31.491Z,4.20
2023-02-13T06:15:04.079Z,4.10
2023-02-13T06:17:36.005Z,4.10
2023-02-13T06:20:08.628Z,4.10
2023-02-13T06:22:40.478Z,4.00
2023-02-13T06:25:13.501Z,4.00
2023-02-13T06:27:45.681Z,4.00
2023-02-13T06:30:18.739Z,4.00
2023-02-13T06:32:50.581Z,4.00
2023-02-13T06:35:22.640Z,4.10
2023-02-13T06:37:54.524Z,4.10
2023-02-13T06:40:26.595Z,4.20
2023-02-13T06:42:58.539Z,4.20
2023-02-13T06:45:30.442Z,4.10
2023-02-13T06:48:02.341Z,4.10
2023-02-13T06:50:34.757Z,4.10
2023-02-13T06:53:06.645Z,4.10
2023-02-13T06:55:41.169Z,4.10
2023-02-13T06:58:13.009Z,4.10
2023-02-13T07:00:44.961Z,4.70
2023-02-13T07:03:16.910Z,5.30
2023-02-13T07:05:52.034Z,5.90
2023-02-13T07:08:24.029Z,6.50
2023-02-13T07:10:56.293Z,7.00
2023-02-13T07:13:28.269Z,7.50
2023-02-13T07:16:02.978Z,7.80
2023-02-13T07:18:36.488Z,8.00
2023-02-13T07:21:09.503Z,8.30
2023-02-13T07:23:41.488Z,8.50
2023-02-13T07:26:13.324Z,8.70
2023-02-13T07:28:45.280Z,8.70
2023-02-13T07:31:17.330Z,8.70
2023-02-13T07:33:49.848Z,8.70
2023-02-13T07:36:21.701Z,8.80
2023-02-13T07:38:53.876Z,9.00
2023-02-13T07:41:27.004Z,9.10
2023-02-13T07:43:59.156Z,9.30
2023-02-13T07:46:31.135Z,9.50
2023-02-13T07:49:03.628Z,9.60
2023-02-13T07:51:35.609Z,9.90
2023-02-13T07:54:07.476Z,10.30
2023-02-13T07:56:39.387Z,10.70
2023-02-13T07:59:11.530Z,10.80
2023-02-13T08:01:44.064Z,10.90
2023-02-13T08:04:16.168Z,11.00
2023-02-13T08:06:48.086Z,11.20
2023-02-13T08:09:40.767Z,11.20
2023-02-13T08:12:15.359Z,11.30
2023-02-13T08:14:52.897Z,11.30
2023-02-13T08:17:24.791Z,11.50
2023-02-13T08:19:56.630Z,11.70
2023-02-13T08:22:28.412Z,11.90
2023-02-13T08:25:00.496Z,12.00
2023-02-13T08:27:35.114Z,12.30
2023-02-13T08:30:10.804Z,12.40
2023-02-13T08:32:53.998Z,12.50
2023-02-13T08:35:32.764Z,12.80
2023-02-13T08:38:07.773Z,13.00
2023-02-13T08:40:50.217Z,12.90
2023-02-13T08:43:22.128Z,13.00
2023-02-13T08:45:56.737Z,12.90
2023-02-13T08:48:29.558Z,12.70
2023-02-13T08:51:09.403Z,12.50
2023-02-13T08:53:42.510Z,12.40
2023-02-13T08:56:14.441Z,12.30
2023-02-13T08:58:49.889Z,12.10
2023-02-13T09:01:21.929Z,12.10
2023-02-13T09:03:53.830Z,12.00
2023-02-13T09:06:28.561Z,12.00
2023-02-13T09:09:00.465Z,12.00
2023-02-13T09:11:32.392Z,12.00
2023-02-13T09:14:04.484Z,12.00
2023-02-13T09:16:36.457Z,12.20
2023-02-13T09:19:08.504Z,12.20
2023-02-13T09:21:40.373Z,12.30
2023-02-13T09:24:12.363Z,12.30
2023-02-13T09:26:44.290Z,12.20
2023-02-13T09:29:16.176Z,12.20
2023-02-13T09:31:48.263Z,12.30
2023-02-13T09:34:20.216Z,12.30
2023-02-13T09:36:55.812Z,12.00
2023-02-13T09:39:27.728Z,12.10
2023-02-13T09:42:00.917Z,12.10
2023-02-13T09:44:42.328Z,11.90
2023-02-13T09:47:28.862Z,11.90
2023-02-13T09:50:12.053Z,12.00
2023-02-13T09:52:46.215Z,12.20
2023-02-13T09:55:24.806Z,12.40
2023-02-13T09:58:21.654Z,12.60
2023-02-13T10:00:58.041Z,12.60
2023-02-13T10:03:48.325Z,12.60
2023-02-13T10:06:28.188Z,12.40
2023-02-13T10:09:10.284Z,12.60
2023-02-13T10:12:03.666Z,12.90
2023-02-13T10:14:54.677Z,13.20
2023-02-13T10:17:36.883Z,13.50
2023-02-13T10:20:42.301Z,13.10
2023-02-13T10:23:20.270Z,13.10
2023-02-13T10:25:55.410Z,13.30
2023-02-13T10:28:40.778Z,13.30
2023-02-13T10:31:17.442Z,13.60
2023-02-13T10:33:51.111Z,14.00
2023-02-13T10:36:27.731Z,14.60
2023-02-13T10:39:11.146Z,15.00
2023-02-13T10:41:57.927Z,15.20
2023-02-13T10:44:47.793Z,15.20
2023-02-13T10:47:34.695Z,15.70
2023-02-13T10:50:44.103Z,15.50
2023-02-13T10:53:18.866Z,16.00
2023-02-13T10:56:05.698Z,16.40
2023-02-13T10:58:59.224Z,16.50
2023-02-13T11:01:45.071Z,16.20
2023-02-13T11:04:20.632Z,16.00
2023-02-13T11:07:02.144Z,15.70
2023-02-13T11:09:40.082Z,15.40
2023-02-13T11:12:27.079Z,15.20
2023-02-13T11:15:05.416Z,14.90
2023-02-13T11:17:40.976Z,14.80
2023-02-13T11:20:26.387Z,14.70
2023-02-13T11:23:29.748Z,14.70
2023-02-13T11:26:04.760Z,14.60
2023-02-13T11:28:53.790Z,14.10
2023-02-13T11:31:34.072Z,14.00
2023-02-13T11:34:25.845Z,14.10
2023-02-13T11:37:13.044Z,14.10
2023-02-13T11:39:47.012Z,13.80
2023-02-13T11:42:30.662Z,13.70
2023-02-13T11:45:21.765Z,13.50
2023-02-13T11:47:57.055Z,13.50
2023-02-13T11:50:37.834Z,13.30
2023-02-13T11:53:21.266Z,13.30
2023-02-13T11:56:07.219Z,13.40
2023-02-13T11:58:40.431Z,13.50
2023-02-13T12:01:26.488Z,13.60
2023-02-13T12:04:16.223Z,13.80
2023-02-13T12:07:02.107Z,13.80
2023-02-13T12:09:34.085Z,13.60
2023-02-13T12:12:07.704Z,13.70
2023-02-13T12:14:45.193Z,13.70
2023-02-13T12:17:31.422Z,13.50
2023-02-13T12:20:04.479Z,13.40
2023-02-13T12:23:07.864Z,13.30
2023-02-13T12:26:08.637Z,13.50
2023-02-13T12:29:07.433Z,13.70
2023-02-13T12:32:12.676Z,13.80
2023-02-13T12:35:10.231Z,13.90
2023-02-13T12:38:03.796Z,13.90
2023-02-13T12:41:03.105Z,14.00
2023-02-13T12:43:46.070Z,14.00
2023-02-13T12:46:52.662Z,14.10
2023-02-13T12:49:34.220Z,14.20
2023-02-13T12:52:13.512Z,14.30
2023-02-13T12:55:10.157Z,14.30
2023-02-13T12:57:42.126Z,14.20
2023-02-13T13:00:33.107Z,13.90
2023-02-13T13:03:33.321Z,13.90
2023-02-13T13:06:36.148Z,13.90
2023-02-13T13:09:42.181Z,14.00
2023-02-13T13:12:29.911Z,14.10
2023-02-13T13:15:23.330Z,14.10
2023-02-13T13:18:40.143Z,14.20
2023-02-13T13:21:43.999Z,14.20
2023-02-13T13:24:44.654Z,14.10
2023-02-13T13:27:32.941Z,14.10
2023-02-13T13:30:18.155Z,13.80
2023-02-13T13:32:58.641Z,13.90
2023-02-13T13:35:34.171Z,13.80
2023-02-13T13:38:28.872Z,13.60
2023-02-13T13:41:15.933Z,13.50
2023-02-13T13:44:02.624Z,13.70
2023-02-13T13:47:01.951Z,13.90
2023-02-13T13:49:49.233Z,13.90
2023-02-13T13:52:23.998Z,13.80
2023-02-13T13:54:58.603Z,13.90
2023-02-13T13:57:33.436Z,14.00
2023-02-13T14:00:14.162Z,14.00
2023-02-13T14:03:11.607Z,13.90
2023-02-13T14:06:00.982Z,13.80
2023-02-13T14:08:41.799Z,13.90
2023-02-13T14:11:45.729Z,14.00
2023-02-13T14:14:28.032Z,14.00
2023-02-13T14:17:04.218Z,13.80
2023-02-13T14:19:39.694Z,13.60
2023-02-13T14:22:20.823Z,13.60
2023-02-13T14:24:59.050Z,13.40
2023-02-13T14:27:37.695Z,13.30
2023-02-13T14:30:28.409Z,13.40
2023-02-13T14:33:05.882Z,13.50
2023-02-13T14:35:39.069Z,13.50
2023-02-13T14:38:24.168Z,13.60
2023-02-13T14:40:56.169Z,13.60
2023-02-13T14:43:39.103Z,13.60
2023-02-13T14:46:34.194Z,13.60
2023-02-13T14:49:25.766Z,13.60
2023-02-13T14:51:59.368Z,13.60
2023-02-13T14:54:50.902Z,13.60
2023-02-13T14:57:28.028Z,13.50
2023-02-13T15:00:04.457Z,13.50
2023-02-13T15:02:44.638Z,13.50
2023-02-13T15:05:21.571Z,13.50
2023-02-13T15:08:17.898Z,13.40
2023-02-13T15:10:55.383Z,13.40
2023-02-13T15:13:41.077Z,13.30
2023-02-13T15:16:14.736Z,13.30
2023-02-13T15:18:55.477Z,13.30
2023-02-13T15:21:33.218Z,13.30
2023-02-13T15:24:05.463Z,13.30
2023-02-13T15:26:37.484Z,13.20
2023-02-13T15:29:26.895Z,13.20
2023-02-13T15:32:19.301Z,13.20
2023-02-13T15:34:51.318Z,13.10
2023-02-13T15:37:25.371Z,13.00
2023-02-13T15:40:22.255Z,12.90
2023-02-13T15:42:55.820Z,12.80
2023-02-13T15:45:29.477Z,12.60
2023-02-13T15:48:01.359Z,12.50
2023-02-13T15:50:36.517Z,12.50
2023-02-13T15:53:14.137Z,12.40
2023-02-13T15:55:57.625Z,12.40
2023-02-13T15:58:32.758Z,12.30
2023-02-13T16:01:07.623Z,12.30
2023-02-13T16:03:41.892Z,12.10
2023-02-13T16:06:16.565Z,12.00
2023-02-13T16:08:59.828Z,11.90
2023-02-13T16:11:38.824Z,11.70
2023-02-13T16:14:50.961Z,11.70
2023-02-13T16:17:40.618Z,11.60
2023-02-13T16:20:16.353Z,11.40
2023-02-13T16:22:59.164Z,11.30
2023-02-13T16:25:38.584Z,11.20
2023-02-13T16:28:10.403Z,11.10
2023-02-13T16:30:51.722Z,11.10
2023-02-13T16:33:31.533Z,11.00
2023-02-13T16:36:09.824Z,10.90
2023-02-13T16:38:44.000Z,10.90
2023-02-13T16:41:30.738Z,10.90
2023-02-13T16:44:21.324Z,10.80
2023-02-13T16:47:04.399Z,10.70
2023-02-13T16:49:38.110Z,10.70
2023-02-13T16:52:12.383Z,10.50
2023-02-13T16:55:02.942Z,10.40
2023-02-13T16:57:35.655Z,10.30
2023-02-13T17:00:22.691Z,10.10
2023-02-13T17:02:56.624Z,10.10
2023-02-13T17:05:29.380Z,9.90
2023-02-13T17:08:01.699Z,9.90
2023-02-13T17:10:38.883Z,9.80
2023-02-13T17:13:14.029Z,9.50
2023-02-13T17:15:48.722Z,9.40
2023-02-13T17:18:21.035Z,9.20
2023-02-13T17:20:53.703Z,9.10
2023-02-13T17:23:26.019Z,9.00
2023-02-13T17:25:58.524Z,8.90
2023-02-13T17:28:33.549Z,8.80
2023-02-13T17:31:11.711Z,8.70
2023-02-13T17:33:45.724Z,8.50
2023-02-13T17:36:17.686Z,8.50
2023-02-13T17:38:50.522Z,8.50
2023-02-13T17:41:23.124Z,8.50
2023-02-13T17:43:55.669Z,8.50
2023-02-13T17:46:28.105Z,8.40
2023-02-13T17:49:00.266Z,8.40
2023-02-13T17:51:33.711Z,8.50
2023-02-13T17:54:05.930Z,8.50
2023-02-13T17:56:37.826Z,8.40
2023-02-13T17:59:09.676Z,8.30
2023-02-13T18:01:42.659Z,8.20
2023-02-13T18:04:14.552Z,8.10
2023-02-13T18:06:46.764Z,8.10
2023-02-13T18:09:19.211Z,8.00
2023-02-13T18:12:03.711Z,7.90
2023-02-13T18:14:37.226Z,7.90
2023-02-13T18:17:10.466Z,8.00
2023-02-13T18:19:45.538Z,7.90
2023-02-13T18:22:17.501Z,7.70
2023-02-13T18:24:49.601Z,7.70
2023-02-13T18:27:23.281Z,7.70
2023-02-13T18:29:56.472Z,7.70
2023-02-13T18:32:28.451Z,7.60
2023-02-13T18:35:00.951Z,7.50
2023-02-13T18:37:33.608Z,7.40
2023-02-13T18:40:09.600Z,7.40
2023-02-13T18:42:41.500Z,7.30
2023-02-13T18:45:13.447Z,7.30
2023-02-13T18:47:45.412Z,7.30
2023-02-13T18:50:17.475Z,7.40
2023-02-13T18:52:49.814Z,7.30
2023-02-13T18:55:21.676Z,7.20
2023-02-13T18:57:53.716Z,7.10
2023-02-13T19:00:26.690Z,7.10
2023-02-13T19:02:59.427Z,7.00
2023-02-13T19:05:33.589Z,7.10
2023-02-13T19:08:05.693Z,7.00
2023-02-13T19:10:37.636Z,6.90
2023-02-13T19:13:12.492Z,6.90
2023-02-13T19:15:44.477Z,6.80
2023-02-13T19:18:18.397Z,6.70
2023-02-13T19:20:50.590Z,6.60
2023-02-13T19:23:22.476Z,6.60
2023-02-13T19:25:57.555Z,6.60
2023-02-13T19:28:29.939Z,6.80
2023-02-13T19:31:14.786Z,6.80
2023-02-13T19:33:48.673Z,6.70
2023-02-13T19:36:25.349Z,6.60
2023-02-13T19:39:00.222Z,6.50
2023-02-13T19:41:33.262Z,6.50
2023-02-13T19:44:05.351Z,6.50
2023-02-13T19:46:38.326Z,6.40
2023-02-13T19:49:11.128Z,6.40
2023-02-13T19:51:46.135Z,6.40
2023-02-13T19:54:18.156Z,6.40
2023-02-13T19:56:50.147Z,6.40
2023-02-13T19:59:22.227Z,6.40
2023-02-13T20:01:54.435Z,6.30
2023-02-13T20:04:27.462Z,6.20
2023-02-13T20:06:59.489Z,6.10
2023-02-13T20:09:31.534Z,6.20
2023-02-13T20:12:04.467Z,6.20
2023-02-13T20:14:36.544Z,6.20
2023-02-13T20:17:08.469Z,6.20
2023-02-13T20:19:40.354Z,6.20
2023-02-13T20:22:16.518Z,6.20
2023-02-13T20:24:48.631Z,6.10
2023-02-13T20:27:20.677Z,6.10
2023-02-13T20:29:58.881Z,6.10
2023-02-13T20:32:39.025Z,6.10
2023-02-13T20:35:10.966Z,6.00
2023-02-13T20:37:42.981Z,6.00
2023-02-13T20:40:14.884Z,5.90
2023-02-13T20:42:47.157Z,5.90
2023-02-13T20:45:19.277Z,5.90
2023-02-13T20:47:51.209Z,5.90
2023-02-13T20:50:24.436Z,5.80
2023-02-13T20:52:57.907Z,5.70
2023-02-13T20:55:30.661Z,5.80
2023-02-13T20:58:03.127Z,5.90
2023-02-13T21:00:35.270Z,5.90
2023-02-13T21:03:09.663Z,5.90
2023-02-13T21:05:41.663Z,5.80
2023-02-13T21:08:13.783Z,5.70
2023-02-13T21:10:48.092Z,5.70
2023-02-13T21:13:19.921Z,5.70
2023-02-13T21:15:58.894Z,5.70
2023-02-13T21:18:30.850Z,5.70
2023-02-13T21:21:06.320Z,5.80
2023-02-13T21:23:39.092Z,5.80
2023-02-13T21:26:14.806Z,5.90
2023-02-13T21:28:48.181Z,5.90
2023-02-13T21:31:29.271Z,5.90
2023-02-13T21:34:04.134Z,5.90
2023-02-13T21:36:36.734Z,5.90
2023-02-13T21:39:10.573Z,5.80
2023-02-13T21:41:44.130Z,5.80
2023-02-13T21:44:16.996Z,5.80
2023-02-13T21:46:48.990Z,5.70
2023-02-13T21:49:21.134Z,5.70
2023-02-13T21:51:53.193Z,5.70
2023-02-13T21:54:25.293Z,5.70
2023-02-13T21:56:57.197Z,5.70
2023-02-13T21:59:29.163Z,5.60
2023-02-13T22:02:02.733Z,5.60
2023-02-13T22:04:34.947Z,5.50
2023-02-13T22:07:06.885Z,5.50
2023-02-13T22:09:38.922Z,5.40
2023-02-13T22:12:11.525Z,5.30
2023-02-13T22:14:49.200Z,5.30
2023-02-13T22:17:22.318Z,5.30
2023-02-13T22:19:54.266Z,5.30
2023-02-13T22:22:26.087Z,5.40
2023-02-13T22:24:57.895Z,5.40
2023-02-13T22:27:29.770Z,5.40
2023-02-13T22:30:01.984Z,5.40
2023-02-13T22:32:33.936Z,5.40
2023-02-13T22:35:08.192Z,5.50
2023-02-13T22:37:39.986Z,5.40
2023-02-13T22:40:12.200Z,5.30
2023-02-13T22:42:44.107Z,5.30
2023-02-13T22:45:16.168Z,5.30
2023-02-13T22:47:48.213Z,5.30
2023-02-13T22:50:20.528Z,5.30
2023-02-13T22:52:52.513Z,5.20
2023-02-13T22:55:24.712Z,5.20
2023-02-13T22:57:58.315Z,5.20
2023-02-13T23:00:30.192Z,5.30
2023-02-13T23:03:02.060Z,5.20
2023-02-13T23:05:33.944Z,5.20
2023-02-13T23:08:05.869Z,5.20
2023-02-13T23:10:37.992Z,5.20
2023-02-13T23:13:10.962Z,5.20
2023-02-13T23:15:42.810Z,5.10
2023-02-13T23:18:14.780Z,5.10
2023-02-13T23:20:46.629Z,5.10
2023-02-13T23:23:18.563Z,5.00
2023-02-13T23:25:50.527Z,5.00
2023-02-13T23:28:22.405Z,5.00
2023-02-13T23:30:54.405Z,5.10
2023-02-13T23:33:26.394Z,5.10
2023-02-13T23:35:58.444Z,5.10
2023-02-13T23:38:30.596Z,5.10
2023-02-13T23:41:09.080Z,5.00
2023-02-13T23:43:40.955Z,5.00
2023-02-13T23:46:12.874Z,5.00
2023-02-13T23:48:46.106Z,5.00
2023-02-13T23:51:18.595Z,5.00
2023-02-13T23:53:53.164Z,5.10
2023-02-13T23:56:26.355Z,5.10
2023-02-13T23:58:58.145Z,5.10
